MOG2001 EDDN-EDDN

Flight info

Callsign MOG2001
Flight time 0h 41m
Altitude
Route
Aircraft

Departure

Time 2026-05-01 14:04
Airport Nuremberg Airport (EDDN)

Arrival

Time 2026-05-01 14:46
Airport Nuremberg Airport (EDDN)
Time Latitude Longitude Altitude Speed Heading
2026-05-01 13:43 49.49487 11.08043 1029 ft 0 kts 188°
2026-05-01 13:48 49.49496 11.08054 1029 ft 5 kts 333°
2026-05-01 13:48 49.49529 11.08052 1031 ft 2 kts
2026-05-01 13:49 49.49535 11.08053 1031 ft 2 kts
2026-05-01 13:49 49.49550 11.08050 1032 ft 0 kts 341°
2026-05-01 13:50 49.49559 11.08032 1033 ft 5 kts 290°
2026-05-01 13:50 49.49567 11.07958 1033 ft 9 kts 278°
2026-05-01 13:50 49.49577 11.07859 1033 ft 10 kts 278°
2026-05-01 13:50 49.49591 11.07782 1033 ft 1 kts 300°
2026-05-01 13:51 49.49591 11.07781 1033 ft 0 kts 300°
2026-05-01 13:51 49.49593 11.07779 1033 ft 4 kts 315°
2026-05-01 13:51 49.49639 11.07771 1035 ft 7 kts
2026-05-01 13:52 49.49649 11.07772 1036 ft 4 kts
2026-05-01 13:52 49.49675 11.07759 1037 ft 0 kts 322°
2026-05-01 13:52 49.49680 11.07749 1038 ft 5 kts 307°
2026-05-01 13:53 49.49694 11.07665 1038 ft 9 kts 282°
2026-05-01 13:53 49.49708 11.07494 1036 ft 9 kts 279°
2026-05-01 13:53 49.49718 11.07396 1034 ft 9 kts 277°
2026-05-01 13:54 49.49728 11.07297 1033 ft 9 kts 279°
2026-05-01 13:54 49.49737 11.07198 1032 ft 9 kts 278°
2026-05-01 13:54 49.49753 11.07102 1030 ft 9 kts 308°
2026-05-01 13:54 49.49811 11.07055 1029 ft 9 kts 339°
2026-05-01 13:55 49.49847 11.07033 1030 ft 0 kts 338°
2026-05-01 13:55 49.49847 11.07032 1030 ft 0 kts 338°
2026-05-01 14:01 49.49848 11.07032 1030 ft 1 kts 337°
2026-05-01 14:01 49.49849 11.07031 1030 ft 1 kts 336°
2026-05-01 14:02 49.49896 11.07013 1031 ft 10 kts
2026-05-01 14:02 49.49943 11.07059 1032 ft 6 kts 76°
2026-05-01 14:02 49.49934 11.07175 1035 ft 29 kts 99°
2026-05-01 14:02 49.49875 11.07736 1054 ft 72 kts 99°
2026-05-01 14:03 49.49799 11.08543 1251 ft 76 kts 98°
2026-05-01 14:03 49.49713 11.09397 1395 ft 84 kts 99°
2026-05-01 14:03 49.49620 11.10292 1475 ft 86 kts 99°
2026-05-01 14:03 49.49629 11.11189 1580 ft 84 kts 66°
2026-05-01 14:04 49.50112 11.11567 1627 ft 85 kts 346°
2026-05-01 14:04 49.50467 11.10928 1733 ft 81 kts 288°
2026-05-01 14:04 49.50642 11.10088 1813 ft 83 kts 287°
2026-05-01 14:04 49.50822 11.09236 1873 ft 84 kts 288°
2026-05-01 14:05 49.51012 11.08384 1932 ft 84 kts 288°
2026-05-01 14:05 49.51202 11.07531 1986 ft 85 kts 288°
2026-05-01 14:05 49.51390 11.06675 2047 ft 84 kts 288°
2026-05-01 14:05 49.51575 11.05818 2101 ft 85 kts 287°
2026-05-01 14:06 49.51759 11.04978 2208 ft 84 kts 288°
2026-05-01 14:06 49.51943 11.04125 2293 ft 84 kts 286°
2026-05-01 14:06 49.52077 11.03303 2225 ft 77 kts 277°
2026-05-01 14:06 49.51979 11.02533 2140 ft 76 kts 234°
2026-05-01 14:07 49.51530 11.02089 2036 ft 75 kts 198°
2026-05-01 14:07 49.51015 11.01993 1885 ft 77 kts 174°
2026-05-01 14:07 49.50506 11.02178 1749 ft 77 kts 134°
2026-05-01 14:08 49.50262 11.03864 1361 ft 79 kts 98°
2026-05-01 14:08 49.50181 11.04669 1229 ft 75 kts 100°
2026-05-01 14:08 49.50104 11.05460 1138 ft 74 kts 97°
2026-05-01 14:08 49.50014 11.06211 1039 ft 66 kts 91°
2026-05-01 14:09 49.49964 11.06858 1028 ft 55 kts 97°
2026-05-01 14:09 49.49906 11.07442 1051 ft 67 kts 98°
2026-05-01 14:09 49.49830 11.08212 1264 ft 69 kts 99°
2026-05-01 14:09 49.49745 11.08986 1457 ft 76 kts 98°
2026-05-01 14:10 49.49659 11.09812 1687 ft 78 kts 96°
2026-05-01 14:10 49.49610 11.10650 1931 ft 81 kts 92°
2026-05-01 14:10 49.49866 11.11300 2077 ft 83 kts 10°
2026-05-01 14:10 49.50437 11.11464 2192 ft 86 kts
2026-05-01 14:11 49.51038 11.11447 2202 ft 87 kts 336°
2026-05-01 14:11 49.51520 11.09857 2085 ft 90 kts 277°
2026-05-01 14:11 49.51581 11.08901 2028 ft 86 kts 273°
2026-05-01 14:12 49.51596 11.07986 1987 ft 82 kts 268°
2026-05-01 14:12 49.51583 11.07109 1915 ft 83 kts 268°
2026-05-01 14:12 49.51578 11.06226 1871 ft 79 kts 270°
2026-05-01 14:12 49.51581 11.05377 1828 ft 80 kts 270°
2026-05-01 14:13 49.51563 11.04537 1809 ft 72 kts 265°
2026-05-01 14:13 49.51362 11.03868 1660 ft 75 kts 215°
2026-05-01 14:13 49.50887 11.03644 1535 ft 72 kts 191°
2026-05-01 14:13 49.50391 11.03737 1414 ft 68 kts 163°
2026-05-01 14:14 49.50186 11.04335 1250 ft 72 kts 85°
2026-05-01 14:14 49.50133 11.05097 1152 ft 75 kts 94°
2026-05-01 14:14 49.50061 11.05870 1072 ft 74 kts 95°
2026-05-01 14:14 49.49989 11.06596 1029 ft 58 kts 98°
2026-05-01 14:15 49.49925 11.07238 1057 ft 73 kts 98°
2026-05-01 14:15 49.49846 11.08055 1225 ft 81 kts 99°
2026-05-01 14:15 49.49753 11.08910 1454 ft 82 kts 100°
2026-05-01 14:15 49.49654 11.09775 1695 ft 82 kts 100°
2026-05-01 14:16 49.49569 11.10649 1948 ft 83 kts 93°
2026-05-01 14:16 49.49827 11.11417 1980 ft 90 kts 29°
2026-05-01 14:16 49.50397 11.11740 2050 ft 86 kts 18°
2026-05-01 14:16 49.50968 11.12012 2111 ft 86 kts 14°
2026-05-01 14:17 49.51565 11.12213 2159 ft 85 kts
2026-05-01 14:17 49.52145 11.12085 2158 ft 88 kts 333°
2026-05-01 14:17 49.52542 11.11410 2205 ft 84 kts 297°
2026-05-01 14:17 49.52812 11.10624 2248 ft 85 kts 296°
2026-05-01 14:18 49.53080 11.09783 2149 ft 89 kts 293°
2026-05-01 14:18 49.53292 11.08938 2125 ft 85 kts 289°
2026-05-01 14:18 49.53467 11.08054 2078 ft 83 kts 284°
2026-05-01 14:18 49.53538 11.07491 2075 ft 80 kts 276°
2026-05-01 14:19 49.53616 11.06387 2082 ft 75 kts 274°
2026-05-01 14:19 49.53660 11.05586 2075 ft 75 kts 274°
2026-05-01 14:19 49.53696 11.04774 2056 ft 76 kts 273°
2026-05-01 14:19 49.53683 11.03925 1977 ft 80 kts 252°
2026-05-01 14:20 49.53263 11.03551 1918 ft 76 kts 183°
2026-05-01 14:20 49.52230 11.03563 1801 ft 77 kts 189°
2026-05-01 14:20 49.51816 11.03176 1776 ft 74 kts 250°
2026-05-01 14:21 49.51771 11.02397 1774 ft 73 kts 272°
2026-05-01 14:21 49.51900 11.01629 1774 ft 75 kts 279°
2026-05-01 14:21 49.51638 11.01000 1687 ft 74 kts 200°
2026-05-01 14:22 49.50836 11.01881 1436 ft 74 kts 160°
2026-05-01 14:22 49.50471 11.02331 1360 ft 70 kts 107°
2026-05-01 14:22 49.50326 11.03065 1434 ft 71 kts 95°
2026-05-01 14:22 49.50268 11.03847 1374 ft 76 kts 98°
2026-05-01 14:23 49.50185 11.04640 1264 ft 74 kts 98°
2026-05-01 14:23 49.50111 11.05424 1160 ft 73 kts 99°
2026-05-01 14:23 49.50031 11.06198 1046 ft 70 kts 99°
2026-05-01 14:23 49.49964 11.06851 1028 ft 54 kts 98°
2026-05-01 14:24 49.49901 11.07487 1074 ft 72 kts 98°
2026-05-01 14:24 49.49813 11.08297 1253 ft 80 kts 99°
2026-05-01 14:24 49.49724 11.09129 1484 ft 80 kts 101°
2026-05-01 14:24 49.49647 11.09952 1766 ft 74 kts 92°
2026-05-01 14:25 49.49981 11.10436 1932 ft 78 kts 11°
2026-05-01 14:25 49.50499 11.10668 1899 ft 76 kts 13°
2026-05-01 14:25 49.51074 11.10851 1836 ft 93 kts
2026-05-01 14:25 49.51698 11.10673 1864 ft 91 kts 316°
2026-05-01 14:26 49.51980 11.09812 1799 ft 91 kts 289°
2026-05-01 14:26 49.52239 11.07964 1838 ft 92 kts 274°
2026-05-01 14:26 49.52280 11.06959 1964 ft 96 kts 274°
2026-05-01 14:27 49.52336 11.05958 2056 ft 91 kts 276°
2026-05-01 14:27 49.52395 11.05097 2136 ft 77 kts 277°
2026-05-01 14:27 49.52460 11.04316 2155 ft 72 kts 277°
2026-05-01 14:28 49.52443 11.02800 2068 ft 73 kts 244°
2026-05-01 14:28 49.52033 11.02298 2061 ft 78 kts 187°
2026-05-01 14:28 49.51490 11.02368 1995 ft 79 kts 174°
2026-05-01 14:28 49.50932 11.02498 1852 ft 78 kts 169°
2026-05-01 14:29 49.50419 11.02713 1696 ft 80 kts 151°
2026-05-01 14:29 49.50287 11.03511 1458 ft 86 kts 85°
2026-05-01 14:30 49.50042 11.06080 1064 ft 77 kts 95°
2026-05-01 14:30 49.49962 11.06824 1032 ft 62 kts 92°
2026-05-01 14:30 49.49906 11.07454 1040 ft 55 kts 99°
2026-05-01 14:31 49.49745 11.09083 1323 ft 83 kts 98°
2026-05-01 14:31 49.49654 11.09957 1561 ft 83 kts 100°
2026-05-01 14:31 49.49604 11.10821 1822 ft 78 kts 77°
2026-05-01 14:31 49.50003 11.11433 1892 ft 89 kts 26°
2026-05-01 14:32 49.50584 11.11736 2048 ft 88 kts 15°
2026-05-01 14:32 49.51168 11.11628 2053 ft 88 kts 331°
2026-05-01 14:32 49.51507 11.10890 2081 ft 85 kts 288°
2026-05-01 14:32 49.51665 11.10022 2078 ft 90 kts 283°
2026-05-01 14:33 49.51797 11.09067 2103 ft 94 kts 281°
2026-05-01 14:33 49.51914 11.08071 2130 ft 97 kts 279°
2026-05-01 14:33 49.52024 11.07028 2154 ft 100 kts 280°
2026-05-01 14:33 49.52129 11.06017 2239 ft 85 kts 278°
2026-05-01 14:34 49.52064 11.05102 2099 ft 83 kts 256°
2026-05-01 14:34 49.51889 11.04284 1957 ft 84 kts 249°
2026-05-01 14:34 49.51550 11.03569 1751 ft 87 kts 214°
2026-05-01 14:34 49.51012 11.03299 1586 ft 81 kts 185°
2026-05-01 14:35 49.50493 11.03366 1457 ft 77 kts 152°
2026-05-01 14:35 49.50228 11.04003 1312 ft 78 kts 84°
2026-05-01 14:35 49.50172 11.04849 1234 ft 84 kts 101°
2026-05-01 14:35 49.50077 11.05746 1104 ft 84 kts 99°
2026-05-01 14:36 49.49993 11.06556 1035 ft 65 kts 98°
2026-05-01 14:36 49.49932 11.07178 1035 ft 62 kts 97°
2026-05-01 14:36 49.49862 11.07955 1156 ft 78 kts 95°
2026-05-01 14:36 49.50020 11.08632 1398 ft 77 kts 38°
2026-05-01 14:37 49.50514 11.09149 1505 ft 91 kts 32°
2026-05-01 14:37 49.51082 11.09350 1782 ft 86 kts 349°
2026-05-01 14:37 49.51614 11.08972 2005 ft 88 kts 303°
2026-05-01 14:37 49.51945 11.08103 2027 ft 97 kts 299°
2026-05-01 14:38 49.52234 11.07187 2061 ft 100 kts 290°
2026-05-01 14:38 49.52295 11.06160 2161 ft 95 kts 265°
2026-05-01 14:38 49.52237 11.05096 2182 ft 101 kts 264°
2026-05-01 14:38 49.52144 11.03951 2053 ft 114 kts 262°
2026-05-01 14:39 49.51841 11.02919 2080 ft 102 kts 213°
2026-05-01 14:39 49.51201 11.02905 2082 ft 91 kts 174°
2026-05-01 14:39 49.50581 11.02922 1965 ft 89 kts 169°
2026-05-01 14:39 49.50270 11.03621 1687 ft 94 kts 95°
2026-05-01 14:40 49.50205 11.04557 1409 ft 89 kts 100°
2026-05-01 14:40 49.50111 11.05430 1202 ft 80 kts 98°
2026-05-01 14:40 49.50024 11.06252 1039 ft 70 kts 99°
2026-05-01 14:40 49.49960 11.06895 1028 ft 57 kts 98°
2026-05-01 14:41 49.49887 11.07653 1115 ft 78 kts 99°
2026-05-01 14:41 49.49836 11.08438 1348 ft 72 kts 81°
2026-05-01 14:41 49.50112 11.09061 1562 ft 68 kts 23°
2026-05-01 14:41 49.50616 11.08997 1689 ft 73 kts 344°
2026-05-01 14:42 49.50993 11.08461 1796 ft 82 kts 285°
2026-05-01 14:42 49.50947 11.07558 1849 ft 91 kts 261°
2026-05-01 14:42 49.51063 11.06550 1814 ft 109 kts 287°
2026-05-01 14:42 49.51295 11.05461 1959 ft 91 kts 288°
2026-05-01 14:43 49.51479 11.04593 2006 ft 82 kts 288°
2026-05-01 14:43 49.51537 11.03759 1990 ft 82 kts 259°
2026-05-01 14:43 49.51834 11.03051 1985 ft 78 kts 315°
2026-05-01 14:43 49.51903 11.02280 1998 ft 75 kts 247°
2026-05-01 14:44 49.51456 11.01856 1921 ft 84 kts 186°
2026-05-01 14:44 49.50464 11.02588 1613 ft 84 kts 121°
2026-05-01 14:44 49.50289 11.03414 1468 ft 84 kts 86°
2026-05-01 14:45 49.50227 11.04297 1315 ft 82 kts 99°
2026-05-01 14:45 49.50056 11.05948 1062 ft 73 kts 97°
2026-05-01 14:45 49.49984 11.06644 1029 ft 58 kts 99°
2026-05-01 14:46 49.49943 11.07064 1032 ft 25 kts 97°
2026-05-01 14:46 49.49879 11.07602 1041 ft 15 kts 129°
2026-05-01 14:46 49.49813 11.07661 1040 ft 0 kts 154°
2026-05-01 14:47 49.49811 11.07662 1040 ft 3 kts 153°
2026-05-01 14:47 49.49803 11.07668 1040 ft 0 kts 151°
2026-05-01 14:49 49.49743 11.07715 1040 ft 11 kts 151°
2026-05-01 14:49 49.49735 11.07722 1040 ft 0 kts 154°
2026-05-01 14:53 49.49727 11.07728 1040 ft 9 kts 156°
2026-05-01 14:53 49.49713 11.07738 1039 ft 0 kts 156°
2026-05-01 14:53 49.49664 11.07775 1037 ft 4 kts 166°
2026-05-01 14:53 49.49661 11.07775 1036 ft 3 kts 179°
2026-05-01 14:54 49.49606 11.07757 1034 ft 0 kts 212°
2026-05-01 14:55 49.49602 11.07753 1033 ft 6 kts 227°
2026-05-01 14:55 49.49600 11.07627 1032 ft 15 kts 280°
2026-05-01 14:55 49.49611 11.07503 1031 ft 0 kts 282°
2026-05-01 14:56 49.49612 11.07501 1031 ft 1 kts 282°
2026-05-01 14:56 49.49612 11.07499 1031 ft 0 kts 280°
2026-05-01 14:57 49.49612 11.07498 1031 ft 1 kts 279°
2026-05-01 14:57 49.49613 11.07484 1031 ft 2 kts 273°
2026-05-01 14:57 49.49621 11.07389 1030 ft 3 kts 288°
2026-05-01 14:58 49.49630 11.07316 1030 ft 10 kts 275°
2026-05-01 14:58 49.49626 11.07221 1029 ft 8 kts 206°
2026-05-01 14:58 49.49593 11.07212 1028 ft 7 kts 198°
2026-05-01 14:58 49.49542 11.07199 1026 ft 6 kts 190°
2026-05-01 14:59 49.49498 11.07223 1024 ft 8 kts 109°
2026-05-01 14:59 49.49494 11.07291 1025 ft 7 kts 97°
2026-05-01 14:59 49.49492 11.07308 1025 ft 0 kts 109°
2026-05-01 14:59 49.49487 11.07354 1025 ft 6 kts 108°
2026-05-01 15:00 49.49494 11.07425 1026 ft 7 kts 20°
2026-05-01 15:00 49.49501 11.07435 1027 ft 9 kts 90°
2026-05-01 15:00 49.49475 11.07391 1025 ft 7 kts 308°
2026-05-01 15:01 49.49502 11.07364 1026 ft 1 kts 354°
2026-05-01 15:01 49.49513 11.07365 1026 ft 0 kts